sensor_id;sensor_type;location;lat;lon;timestamp;P1;durP1;ratioP1;P2;durP2;ratioP2
9007;SDS011;62813;51.424;6.762;2024-02-16T00:01:00;4.13;;;1.90;;
9007;SDS011;62813;51.424;6.762;2024-02-16T00:03:27;4.17;;;1.60;;
9007;SDS011;62813;51.424;6.762;2024-02-16T00:05:54;2.53;;;1.63;;
9007;SDS011;62813;51.424;6.762;2024-02-16T00:08:20;4.90;;;1.63;;
9007;SDS011;62813;51.424;6.762;2024-02-16T00:10:47;1.93;;;1.40;;
9007;SDS011;62813;51.424;6.762;2024-02-16T00:13:14;3.93;;;1.60;;
9007;SDS011;62813;51.424;6.762;2024-02-16T00:15:41;3.23;;;1.40;;
9007;SDS011;62813;51.424;6.762;2024-02-16T00:18:07;4.63;;;1.60;;
9007;SDS011;62813;51.424;6.762;2024-02-16T00:20:34;4.00;;;1.90;;
9007;SDS011;62813;51.424;6.762;2024-02-16T00:23:01;5.03;;;1.90;;
9007;SDS011;62813;51.424;6.762;2024-02-16T00:25:29;3.60;;;1.70;;
9007;SDS011;62813;51.424;6.762;2024-02-16T00:27:56;3.20;;;1.33;;
9007;SDS011;62813;51.424;6.762;2024-02-16T00:30:23;3.60;;;1.80;;
9007;SDS011;62813;51.424;6.762;2024-02-16T00:32:49;5.13;;;1.73;;
9007;SDS011;62813;51.424;6.762;2024-02-16T00:35:16;6.27;;;2.00;;
9007;SDS011;62813;51.424;6.762;2024-02-16T00:37:44;2.40;;;1.60;;
9007;SDS011;62813;51.424;6.762;2024-02-16T00:40:12;2.83;;;1.40;;
9007;SDS011;62813;51.424;6.762;2024-02-16T00:42:38;4.10;;;1.60;;
9007;SDS011;62813;51.424;6.762;2024-02-16T00:45:05;3.17;;;1.50;;
9007;SDS011;62813;51.424;6.762;2024-02-16T00:47:32;3.23;;;1.87;;
9007;SDS011;62813;51.424;6.762;2024-02-16T00:49:59;4.10;;;1.83;;
9007;SDS011;62813;51.424;6.762;2024-02-16T00:52:25;3.70;;;1.80;;
9007;SDS011;62813;51.424;6.762;2024-02-16T00:54:52;2.10;;;1.40;;
9007;SDS011;62813;51.424;6.762;2024-02-16T00:57:18;4.53;;;2.00;;
9007;SDS011;62813;51.424;6.762;2024-02-16T00:59:45;2.40;;;1.67;;
9007;SDS011;62813;51.424;6.762;2024-02-16T01:02:11;3.70;;;1.80;;
9007;SDS011;62813;51.424;6.762;2024-02-16T01:04:38;3.00;;;1.60;;
9007;SDS011;62813;51.424;6.762;2024-02-16T01:07:05;6.50;;;1.77;;
9007;SDS011;62813;51.424;6.762;2024-02-16T01:09:31;4.70;;;1.67;;
9007;SDS011;62813;51.424;6.762;2024-02-16T01:11:58;5.37;;;1.67;;
9007;SDS011;62813;51.424;6.762;2024-02-16T01:14:25;3.63;;;1.60;;
9007;SDS011;62813;51.424;6.762;2024-02-16T01:16:51;5.17;;;1.80;;
9007;SDS011;62813;51.424;6.762;2024-02-16T01:19:18;2.97;;;1.60;;
9007;SDS011;62813;51.424;6.762;2024-02-16T01:21:45;4.80;;;2.00;;
9007;SDS011;62813;51.424;6.762;2024-02-16T01:24:14;3.20;;;1.37;;
9007;SDS011;62813;51.424;6.762;2024-02-16T01:26:40;4.53;;;1.80;;
9007;SDS011;62813;51.424;6.762;2024-02-16T01:29:07;1.93;;;1.40;;
9007;SDS011;62813;51.424;6.762;2024-02-16T01:31:33;3.07;;;1.43;;
9007;SDS011;62813;51.424;6.762;2024-02-16T01:34:02;4.53;;;1.70;;
9007;SDS011;62813;51.424;6.762;2024-02-16T01:36:28;4.73;;;1.80;;
9007;SDS011;62813;51.424;6.762;2024-02-16T01:38:55;3.77;;;1.77;;
9007;SDS011;62813;51.424;6.762;2024-02-16T01:41:22;2.77;;;1.63;;
9007;SDS011;62813;51.424;6.762;2024-02-16T01:43:48;4.30;;;1.77;;
9007;SDS011;62813;51.424;6.762;2024-02-16T01:46:15;5.13;;;1.77;;
9007;SDS011;62813;51.424;6.762;2024-02-16T01:48:41;2.73;;;1.60;;
9007;SDS011;62813;51.424;6.762;2024-02-16T01:51:09;3.23;;;1.70;;
9007;SDS011;62813;51.424;6.762;2024-02-16T01:53:36;3.87;;;1.93;;
9007;SDS011;62813;51.424;6.762;2024-02-16T01:56:03;4.57;;;1.70;;
9007;SDS011;62813;51.424;6.762;2024-02-16T01:58:30;3.30;;;1.73;;
9007;SDS011;62813;51.424;6.762;2024-02-16T02:00:56;4.17;;;1.80;;
9007;SDS011;62813;51.424;6.762;2024-02-16T02:03:23;2.73;;;1.60;;
9007;SDS011;62813;51.424;6.762;2024-02-16T02:05:49;4.03;;;2.10;;
9007;SDS011;62813;51.424;6.762;2024-02-16T02:08:17;5.27;;;1.90;;
9007;SDS011;62813;51.424;6.762;2024-02-16T02:10:44;3.20;;;1.80;;
9007;SDS011;62813;51.424;6.762;2024-02-16T02:13:10;4.13;;;1.70;;
9007;SDS011;62813;51.424;6.762;2024-02-16T02:15:37;4.63;;;2.07;;
9007;SDS011;62813;51.424;6.762;2024-02-16T02:18:04;6.53;;;1.60;;
9007;SDS011;62813;51.424;6.762;2024-02-16T02:20:31;3.50;;;1.77;;
9007;SDS011;62813;51.424;6.762;2024-02-16T02:22:58;4.37;;;1.63;;
9007;SDS011;62813;51.424;6.762;2024-02-16T02:25:24;2.43;;;1.63;;
9007;SDS011;62813;51.424;6.762;2024-02-16T02:27:53;3.40;;;1.60;;
9007;SDS011;62813;51.424;6.762;2024-02-16T02:30:19;6.50;;;2.00;;
9007;SDS011;62813;51.424;6.762;2024-02-16T02:32:47;2.40;;;1.63;;
9007;SDS011;62813;51.424;6.762;2024-02-16T02:35:15;5.03;;;1.47;;
9007;SDS011;62813;51.424;6.762;2024-02-16T02:37:42;3.60;;;1.70;;
9007;SDS011;62813;51.424;6.762;2024-02-16T02:40:09;3.10;;;1.67;;
9007;SDS011;62813;51.424;6.762;2024-02-16T02:42:36;4.23;;;1.67;;
9007;SDS011;62813;51.424;6.762;2024-02-16T02:45:02;3.87;;;1.87;;
9007;SDS011;62813;51.424;6.762;2024-02-16T02:47:29;2.83;;;1.60;;
9007;SDS011;62813;51.424;6.762;2024-02-16T02:49:56;4.70;;;1.70;;
9007;SDS011;62813;51.424;6.762;2024-02-16T02:52:22;4.57;;;2.10;;
9007;SDS011;62813;51.424;6.762;2024-02-16T02:54:49;2.93;;;1.70;;
9007;SDS011;62813;51.424;6.762;2024-02-16T02:57:16;5.50;;;1.70;;
9007;SDS011;62813;51.424;6.762;2024-02-16T02:59:42;4.00;;;1.50;;
9007;SDS011;62813;51.424;6.762;2024-02-16T03:02:09;4.10;;;1.80;;
9007;SDS011;62813;51.424;6.762;2024-02-16T03:04:35;4.30;;;1.80;;
9007;SDS011;62813;51.424;6.762;2024-02-16T03:07:02;2.63;;;1.70;;
9007;SDS011;62813;51.424;6.762;2024-02-16T03:09:29;4.27;;;1.90;;
9007;SDS011;62813;51.424;6.762;2024-02-16T03:11:56;5.80;;;1.90;;
9007;SDS011;62813;51.424;6.762;2024-02-16T03:14:22;4.13;;;1.67;;
9007;SDS011;62813;51.424;6.762;2024-02-16T03:16:49;2.47;;;1.60;;
9007;SDS011;62813;51.424;6.762;2024-02-16T03:19:15;4.97;;;2.07;;
9007;SDS011;62813;51.424;6.762;2024-02-16T03:21:42;3.77;;;1.70;;
9007;SDS011;62813;51.424;6.762;2024-02-16T03:24:08;3.20;;;1.60;;
9007;SDS011;62813;51.424;6.762;2024-02-16T03:26:35;2.13;;;1.60;;
9007;SDS011;62813;51.424;6.762;2024-02-16T03:29:01;3.17;;;1.60;;
9007;SDS011;62813;51.424;6.762;2024-02-16T03:31:28;4.30;;;1.53;;
9007;SDS011;62813;51.424;6.762;2024-02-16T03:33:56;3.83;;;1.60;;
9007;SDS011;62813;51.424;6.762;2024-02-16T03:36:24;7.20;;;1.87;;
9007;SDS011;62813;51.424;6.762;2024-02-16T03:38:51;5.73;;;2.00;;
9007;SDS011;62813;51.424;6.762;2024-02-16T03:41:18;3.23;;;1.60;;
9007;SDS011;62813;51.424;6.762;2024-02-16T03:43:45;3.00;;;1.70;;
9007;SDS011;62813;51.424;6.762;2024-02-16T03:46:12;5.37;;;1.83;;
9007;SDS011;62813;51.424;6.762;2024-02-16T03:48:39;3.33;;;1.87;;
9007;SDS011;62813;51.424;6.762;2024-02-16T03:51:06;3.33;;;1.50;;
9007;SDS011;62813;51.424;6.762;2024-02-16T03:53:33;3.57;;;1.60;;
9007;SDS011;62813;51.424;6.762;2024-02-16T03:56:00;3.40;;;1.60;;
9007;SDS011;62813;51.424;6.762;2024-02-16T03:58:26;4.77;;;1.70;;
9007;SDS011;62813;51.424;6.762;2024-02-16T04:00:53;3.37;;;2.13;;
9007;SDS011;62813;51.424;6.762;2024-02-16T04:03:20;3.50;;;1.83;;
9007;SDS011;62813;51.424;6.762;2024-02-16T04:05:46;4.37;;;2.00;;
9007;SDS011;62813;51.424;6.762;2024-02-16T04:08:13;3.50;;;1.77;;
9007;SDS011;62813;51.424;6.762;2024-02-16T04:10:40;4.10;;;1.90;;
9007;SDS011;62813;51.424;6.762;2024-02-16T04:13:06;4.80;;;1.70;;
9007;SDS011;62813;51.424;6.762;2024-02-16T04:15:33;3.27;;;1.90;;
9007;SDS011;62813;51.424;6.762;2024-02-16T04:17:59;5.93;;;2.10;;
9007;SDS011;62813;51.424;6.762;2024-02-16T04:20:26;4.50;;;1.80;;
9007;SDS011;62813;51.424;6.762;2024-02-16T04:22:53;3.33;;;1.93;;
9007;SDS011;62813;51.424;6.762;2024-02-16T04:25:19;2.77;;;1.60;;
9007;SDS011;62813;51.424;6.762;2024-02-16T04:27:46;4.37;;;1.97;;
9007;SDS011;62813;51.424;6.762;2024-02-16T04:30:13;5.43;;;2.20;;
9007;SDS011;62813;51.424;6.762;2024-02-16T04:32:39;3.70;;;2.33;;
9007;SDS011;62813;51.424;6.762;2024-02-16T04:35:06;3.87;;;2.60;;
9007;SDS011;62813;51.424;6.762;2024-02-16T04:37:33;5.60;;;2.20;;
9007;SDS011;62813;51.424;6.762;2024-02-16T04:39:59;3.80;;;1.80;;
9007;SDS011;62813;51.424;6.762;2024-02-16T04:42:26;4.07;;;1.70;;
9007;SDS011;62813;51.424;6.762;2024-02-16T04:44:53;5.80;;;2.33;;
9007;SDS011;62813;51.424;6.762;2024-02-16T04:47:23;1.93;;;1.40;;
9007;SDS011;62813;51.424;6.762;2024-02-16T04:49:51;3.87;;;1.60;;
9007;SDS011;62813;51.424;6.762;2024-02-16T04:52:18;5.90;;;1.93;;
9007;SDS011;62813;51.424;6.762;2024-02-16T04:54:45;5.90;;;1.83;;
9007;SDS011;62813;51.424;6.762;2024-02-16T04:57:11;2.93;;;1.80;;
9007;SDS011;62813;51.424;6.762;2024-02-16T04:59:38;4.00;;;2.17;;
9007;SDS011;62813;51.424;6.762;2024-02-16T05:02:04;2.90;;;1.60;;
9007;SDS011;62813;51.424;6.762;2024-02-16T05:04:33;4.33;;;3.00;;
9007;SDS011;62813;51.424;6.762;2024-02-16T05:07:00;4.80;;;3.20;;
9007;SDS011;62813;51.424;6.762;2024-02-16T05:09:27;5.37;;;2.10;;
9007;SDS011;62813;51.424;6.762;2024-02-16T05:11:54;5.97;;;2.10;;
9007;SDS011;62813;51.424;6.762;2024-02-16T05:14:20;3.33;;;1.70;;
9007;SDS011;62813;51.424;6.762;2024-02-16T05:16:47;4.43;;;2.20;;
9007;SDS011;62813;51.424;6.762;2024-02-16T05:19:13;4.73;;;2.10;;
9007;SDS011;62813;51.424;6.762;2024-02-16T05:21:40;3.73;;;2.27;;
9007;SDS011;62813;51.424;6.762;2024-02-16T05:24:07;3.87;;;1.63;;
9007;SDS011;62813;51.424;6.762;2024-02-16T05:26:34;3.90;;;2.00;;
9007;SDS011;62813;51.424;6.762;2024-02-16T05:29:00;5.27;;;2.20;;
9007;SDS011;62813;51.424;6.762;2024-02-16T05:31:27;4.80;;;2.37;;
9007;SDS011;62813;51.424;6.762;2024-02-16T05:33:53;4.57;;;1.97;;
9007;SDS011;62813;51.424;6.762;2024-02-16T05:36:21;3.63;;;2.07;;
9007;SDS011;62813;51.424;6.762;2024-02-16T05:38:51;4.47;;;1.87;;
9007;SDS011;62813;51.424;6.762;2024-02-16T05:41:18;3.03;;;2.03;;
9007;SDS011;62813;51.424;6.762;2024-02-16T05:43:44;4.00;;;1.97;;
9007;SDS011;62813;51.424;6.762;2024-02-16T05:46:17;2.40;;;1.80;;
9007;SDS011;62813;51.424;6.762;2024-02-16T05:48:44;5.40;;;2.77;;
9007;SDS011;62813;51.424;6.762;2024-02-16T05:51:11;7.60;;;5.50;;
9007;SDS011;62813;51.424;6.762;2024-02-16T05:53:41;5.67;;;2.50;;
9007;SDS011;62813;51.424;6.762;2024-02-16T05:56:08;8.37;;;4.00;;
9007;SDS011;62813;51.424;6.762;2024-02-16T05:58:36;4.67;;;2.97;;
9007;SDS011;62813;51.424;6.762;2024-02-16T06:01:03;3.23;;;2.00;;
9007;SDS011;62813;51.424;6.762;2024-02-16T06:03:30;4.53;;;2.50;;
9007;SDS011;62813;51.424;6.762;2024-02-16T06:05:56;3.87;;;1.93;;
9007;SDS011;62813;51.424;6.762;2024-02-16T06:08:23;5.03;;;2.50;;
9007;SDS011;62813;51.424;6.762;2024-02-16T06:10:53;6.20;;;2.93;;
9007;SDS011;62813;51.424;6.762;2024-02-16T06:13:20;7.53;;;3.00;;
9007;SDS011;62813;51.424;6.762;2024-02-16T06:15:48;8.37;;;4.77;;
9007;SDS011;62813;51.424;6.762;2024-02-16T06:18:15;4.40;;;2.40;;
9007;SDS011;62813;51.424;6.762;2024-02-16T06:20:41;8.70;;;4.83;;
9007;SDS011;62813;51.424;6.762;2024-02-16T06:23:08;7.50;;;3.87;;
9007;SDS011;62813;51.424;6.762;2024-02-16T06:25:35;6.20;;;1.97;;
9007;SDS011;62813;51.424;6.762;2024-02-16T06:28:02;5.97;;;2.10;;
9007;SDS011;62813;51.424;6.762;2024-02-16T06:30:29;9.13;;;4.60;;
9007;SDS011;62813;51.424;6.762;2024-02-16T06:32:55;5.77;;;3.47;;
9007;SDS011;62813;51.424;6.762;2024-02-16T06:35:24;5.43;;;3.23;;
9007;SDS011;62813;51.424;6.762;2024-02-16T06:37:50;5.17;;;3.70;;
9007;SDS011;62813;51.424;6.762;2024-02-16T06:40:17;7.83;;;4.13;;
9007;SDS011;62813;51.424;6.762;2024-02-16T06:42:44;4.00;;;2.47;;
9007;SDS011;62813;51.424;6.762;2024-02-16T06:45:10;4.30;;;2.00;;
9007;SDS011;62813;51.424;6.762;2024-02-16T06:47:37;10.00;;;7.43;;
9007;SDS011;62813;51.424;6.762;2024-02-16T06:50:04;9.80;;;5.27;;
9007;SDS011;62813;51.424;6.762;2024-02-16T06:52:31;6.90;;;2.80;;
9007;SDS011;62813;51.424;6.762;2024-02-16T06:54:58;4.13;;;2.27;;
9007;SDS011;62813;51.424;6.762;2024-02-16T06:57:25;7.33;;;4.70;;
9007;SDS011;62813;51.424;6.762;2024-02-16T06:59:52;7.77;;;3.63;;
9007;SDS011;62813;51.424;6.762;2024-02-16T07:02:19;3.67;;;2.50;;
9007;SDS011;62813;51.424;6.762;2024-02-16T07:04:46;7.20;;;2.30;;
9007;SDS011;62813;51.424;6.762;2024-02-16T07:07:12;6.10;;;2.43;;
9007;SDS011;62813;51.424;6.762;2024-02-16T07:09:39;6.90;;;3.00;;
9007;SDS011;62813;51.424;6.762;2024-02-16T07:12:06;4.60;;;2.30;;
9007;SDS011;62813;51.424;6.762;2024-02-16T07:14:33;4.47;;;2.23;;
9007;SDS011;62813;51.424;6.762;2024-02-16T07:16:59;3.77;;;2.20;;
9007;SDS011;62813;51.424;6.762;2024-02-16T07:19:26;6.27;;;2.53;;
9007;SDS011;62813;51.424;6.762;2024-02-16T07:21:53;4.70;;;2.27;;
9007;SDS011;62813;51.424;6.762;2024-02-16T07:24:20;4.20;;;2.00;;
9007;SDS011;62813;51.424;6.762;2024-02-16T07:26:47;5.27;;;2.50;;
9007;SDS011;62813;51.424;6.762;2024-02-16T07:29:13;5.97;;;2.50;;
9007;SDS011;62813;51.424;6.762;2024-02-16T07:31:43;5.40;;;2.27;;
9007;SDS011;62813;51.424;6.762;2024-02-16T07:34:10;7.03;;;3.90;;
9007;SDS011;62813;51.424;6.762;2024-02-16T07:36:38;4.87;;;2.57;;
9007;SDS011;62813;51.424;6.762;2024-02-16T07:39:05;5.70;;;2.53;;
9007;SDS011;62813;51.424;6.762;2024-02-16T07:41:31;4.60;;;2.97;;
9007;SDS011;62813;51.424;6.762;2024-02-16T07:43:58;9.30;;;2.93;;
9007;SDS011;62813;51.424;6.762;2024-02-16T07:46:24;5.73;;;3.30;;
9007;SDS011;62813;51.424;6.762;2024-02-16T07:48:51;7.73;;;3.10;;
9007;SDS011;62813;51.424;6.762;2024-02-16T07:51:18;4.93;;;2.50;;
9007;SDS011;62813;51.424;6.762;2024-02-16T07:53:45;8.13;;;2.50;;
9007;SDS011;62813;51.424;6.762;2024-02-16T07:56:13;6.30;;;2.80;;
9007;SDS011;62813;51.424;6.762;2024-02-16T07:58:40;7.37;;;2.63;;
9007;SDS011;62813;51.424;6.762;2024-02-16T08:01:08;5.27;;;2.67;;
9007;SDS011;62813;51.424;6.762;2024-02-16T08:03:36;7.20;;;2.80;;
9007;SDS011;62813;51.424;6.762;2024-02-16T08:06:04;9.50;;;2.57;;
9007;SDS011;62813;51.424;6.762;2024-02-16T08:08:31;11.40;;;2.77;;
9007;SDS011;62813;51.424;6.762;2024-02-16T08:10:58;4.67;;;2.50;;
9007;SDS011;62813;51.424;6.762;2024-02-16T08:13:25;11.17;;;4.20;;
9007;SDS011;62813;51.424;6.762;2024-02-16T08:15:52;10.33;;;3.67;;
9007;SDS011;62813;51.424;6.762;2024-02-16T08:18:18;12.87;;;3.47;;
9007;SDS011;62813;51.424;6.762;2024-02-16T08:20:46;5.23;;;2.53;;
9007;SDS011;62813;51.424;6.762;2024-02-16T08:23:13;8.83;;;3.43;;
9007;SDS011;62813;51.424;6.762;2024-02-16T08:25:39;13.60;;;5.77;;
9007;SDS011;62813;51.424;6.762;2024-02-16T08:28:06;4.43;;;2.83;;
9007;SDS011;62813;51.424;6.762;2024-02-16T08:30:32;5.43;;;2.70;;
9007;SDS011;62813;51.424;6.762;2024-02-16T08:32:59;7.70;;;2.97;;
9007;SDS011;62813;51.424;6.762;2024-02-16T08:35:26;5.10;;;2.83;;
9007;SDS011;62813;51.424;6.762;2024-02-16T08:37:54;5.07;;;2.60;;
9007;SDS011;62813;51.424;6.762;2024-02-16T08:40:20;6.27;;;2.90;;
9007;SDS011;62813;51.424;6.762;2024-02-16T08:42:47;6.67;;;2.80;;
9007;SDS011;62813;51.424;6.762;2024-02-16T08:45:14;5.40;;;2.27;;
9007;SDS011;62813;51.424;6.762;2024-02-16T08:47:44;3.63;;;2.40;;
9007;SDS011;62813;51.424;6.762;2024-02-16T08:50:13;6.33;;;3.27;;
9007;SDS011;62813;51.424;6.762;2024-02-16T08:52:39;9.07;;;2.90;;
9007;SDS011;62813;51.424;6.762;2024-02-16T08:55:06;6.90;;;3.00;;
9007;SDS011;62813;51.424;6.762;2024-02-16T08:57:34;5.77;;;3.60;;
9007;SDS011;62813;51.424;6.762;2024-02-16T09:00:00;9.23;;;3.50;;
9007;SDS011;62813;51.424;6.762;2024-02-16T09:02:27;7.43;;;3.00;;
9007;SDS011;62813;51.424;6.762;2024-02-16T09:04:54;7.37;;;2.93;;
9007;SDS011;62813;51.424;6.762;2024-02-16T09:07:21;11.60;;;2.53;;
9007;SDS011;62813;51.424;6.762;2024-02-16T09:09:49;6.80;;;3.37;;
9007;SDS011;62813;51.424;6.762;2024-02-16T09:12:15;5.13;;;3.67;;
9007;SDS011;62813;51.424;6.762;2024-02-16T09:14:42;7.90;;;2.70;;
9007;SDS011;62813;51.424;6.762;2024-02-16T09:17:08;5.67;;;2.47;;
9007;SDS011;62813;51.424;6.762;2024-02-16T09:19:35;9.07;;;2.67;;
9007;SDS011;62813;51.424;6.762;2024-02-16T09:22:02;5.87;;;2.80;;
9007;SDS011;62813;51.424;6.762;2024-02-16T09:24:29;5.73;;;2.77;;
9007;SDS011;62813;51.424;6.762;2024-02-16T09:26:57;6.80;;;2.73;;
9007;SDS011;62813;51.424;6.762;2024-02-16T09:29:24;6.80;;;2.77;;
9007;SDS011;62813;51.424;6.762;2024-02-16T09:31:50;5.13;;;2.93;;
9007;SDS011;62813;51.424;6.762;2024-02-16T09:34:18;7.50;;;2.90;;
9007;SDS011;62813;51.424;6.762;2024-02-16T09:36:44;6.53;;;2.70;;
9007;SDS011;62813;51.424;6.762;2024-02-16T09:39:11;10.70;;;3.23;;
9007;SDS011;62813;51.424;6.762;2024-02-16T09:41:38;7.03;;;2.57;;
9007;SDS011;62813;51.424;6.762;2024-02-16T09:44:07;8.20;;;2.93;;
9007;SDS011;62813;51.424;6.762;2024-02-16T09:46:34;7.27;;;2.70;;
9007;SDS011;62813;51.424;6.762;2024-02-16T09:49:01;6.57;;;2.80;;
9007;SDS011;62813;51.424;6.762;2024-02-16T09:51:29;4.50;;;2.50;;
9007;SDS011;62813;51.424;6.762;2024-02-16T09:53:56;9.40;;;3.00;;
9007;SDS011;62813;51.424;6.762;2024-02-16T09:56:25;7.70;;;3.07;;
9007;SDS011;62813;51.424;6.762;2024-02-16T09:58:51;6.40;;;2.73;;
9007;SDS011;62813;51.424;6.762;2024-02-16T10:01:18;7.17;;;3.00;;
9007;SDS011;62813;51.424;6.762;2024-02-16T10:03:48;6.40;;;2.63;;
9007;SDS011;62813;51.424;6.762;2024-02-16T10:06:15;5.50;;;2.60;;
9007;SDS011;62813;51.424;6.762;2024-02-16T10:08:55;5.93;;;2.97;;
9007;SDS011;62813;51.424;6.762;2024-02-16T10:11:24;9.03;;;3.10;;
9007;SDS011;62813;51.424;6.762;2024-02-16T10:13:57;6.80;;;3.93;;
9007;SDS011;62813;51.424;6.762;2024-02-16T10:16:24;12.97;;;3.80;;
9007;SDS011;62813;51.424;6.762;2024-02-16T10:18:51;8.93;;;2.87;;
9007;SDS011;62813;51.424;6.762;2024-02-16T10:21:24;13.80;;;6.20;;
9007;SDS011;62813;51.424;6.762;2024-02-16T10:26:47;9.97;;;2.73;;
9007;SDS011;62813;51.424;6.762;2024-02-16T10:29:16;8.37;;;2.97;;
9007;SDS011;62813;51.424;6.762;2024-02-16T10:31:43;7.63;;;3.03;;
9007;SDS011;62813;51.424;6.762;2024-02-16T10:34:10;7.67;;;3.50;;
9007;SDS011;62813;51.424;6.762;2024-02-16T10:36:37;6.70;;;3.00;;
9007;SDS011;62813;51.424;6.762;2024-02-16T10:39:05;8.70;;;3.30;;
9007;SDS011;62813;51.424;6.762;2024-02-16T10:41:33;17.50;;;3.63;;
9007;SDS011;62813;51.424;6.762;2024-02-16T10:44:01;9.03;;;2.83;;
9007;SDS011;62813;51.424;6.762;2024-02-16T10:46:28;6.33;;;3.47;;
9007;SDS011;62813;51.424;6.762;2024-02-16T10:48:54;9.93;;;3.13;;
9007;SDS011;62813;51.424;6.762;2024-02-16T10:51:23;12.47;;;3.60;;
9007;SDS011;62813;51.424;6.762;2024-02-16T10:53:53;9.30;;;3.87;;
9007;SDS011;62813;51.424;6.762;2024-02-16T10:56:31;8.50;;;4.10;;
9007;SDS011;62813;51.424;6.762;2024-02-16T10:59:06;8.27;;;3.70;;
9007;SDS011;62813;51.424;6.762;2024-02-16T11:01:40;10.27;;;3.50;;
9007;SDS011;62813;51.424;6.762;2024-02-16T11:04:08;13.20;;;7.00;;
9007;SDS011;62813;51.424;6.762;2024-02-16T11:06:48;29.47;;;17.70;;
9007;SDS011;62813;51.424;6.762;2024-02-16T11:11:55;8.30;;;3.93;;
9007;SDS011;62813;51.424;6.762;2024-02-16T11:14:33;8.27;;;3.30;;
9007;SDS011;62813;51.424;6.762;2024-02-16T11:17:00;7.80;;;3.57;;
9007;SDS011;62813;51.424;6.762;2024-02-16T11:19:29;6.90;;;4.13;;
9007;SDS011;62813;51.424;6.762;2024-02-16T11:21:56;14.20;;;7.87;;
9007;SDS011;62813;51.424;6.762;2024-02-16T11:24:33;11.17;;;5.50;;
9007;SDS011;62813;51.424;6.762;2024-02-16T11:27:03;9.87;;;4.13;;
9007;SDS011;62813;51.424;6.762;2024-02-16T11:29:36;8.97;;;4.43;;
9007;SDS011;62813;51.424;6.762;2024-02-16T11:32:03;8.70;;;4.63;;
9007;SDS011;62813;51.424;6.762;2024-02-16T11:34:30;10.33;;;4.67;;
9007;SDS011;62813;51.424;6.762;2024-02-16T11:37:01;12.77;;;5.53;;
9007;SDS011;62813;51.424;6.762;2024-02-16T11:39:28;11.53;;;6.50;;
9007;SDS011;62813;51.424;6.762;2024-02-16T11:42:06;10.97;;;5.07;;
9007;SDS011;62813;51.424;6.762;2024-02-16T11:44:33;11.47;;;4.67;;
9007;SDS011;62813;51.424;6.762;2024-02-16T11:47:01;14.13;;;5.97;;
9007;SDS011;62813;51.424;6.762;2024-02-16T11:49:29;10.30;;;4.97;;
9007;SDS011;62813;51.424;6.762;2024-02-16T11:51:56;14.37;;;7.43;;
9007;SDS011;62813;51.424;6.762;2024-02-16T11:54:23;11.30;;;4.17;;
9007;SDS011;62813;51.424;6.762;2024-02-16T11:56:51;9.30;;;4.90;;
9007;SDS011;62813;51.424;6.762;2024-02-16T11:59:20;14.20;;;4.53;;
9007;SDS011;62813;51.424;6.762;2024-02-16T12:06:47;10.77;;;4.43;;
9007;SDS011;62813;51.424;6.762;2024-02-16T12:09:17;14.50;;;5.63;;
9007;SDS011;62813;51.424;6.762;2024-02-16T12:11:44;13.23;;;4.77;;
9007;SDS011;62813;51.424;6.762;2024-02-16T12:14:11;15.87;;;5.13;;
9007;SDS011;62813;51.424;6.762;2024-02-16T12:16:37;9.90;;;4.70;;
9007;SDS011;62813;51.424;6.762;2024-02-16T12:19:06;12.80;;;5.03;;
9007;SDS011;62813;51.424;6.762;2024-02-16T12:21:34;10.73;;;5.23;;
9007;SDS011;62813;51.424;6.762;2024-02-16T12:24:01;12.50;;;6.10;;
9007;SDS011;62813;51.424;6.762;2024-02-16T12:26:28;11.83;;;5.23;;
9007;SDS011;62813;51.424;6.762;2024-02-16T12:28:55;14.37;;;5.37;;
9007;SDS011;62813;51.424;6.762;2024-02-16T12:31:21;12.40;;;4.93;;
9007;SDS011;62813;51.424;6.762;2024-02-16T12:33:48;16.23;;;5.10;;
9007;SDS011;62813;51.424;6.762;2024-02-16T12:36:15;11.90;;;5.40;;
9007;SDS011;62813;51.424;6.762;2024-02-16T12:38:42;11.33;;;4.97;;
9007;SDS011;62813;51.424;6.762;2024-02-16T12:41:09;12.40;;;5.37;;
9007;SDS011;62813;51.424;6.762;2024-02-16T12:43:36;12.83;;;6.13;;
9007;SDS011;62813;51.424;6.762;2024-02-16T12:46:03;11.47;;;5.27;;
9007;SDS011;62813;51.424;6.762;2024-02-16T12:48:30;7.57;;;4.80;;
9007;SDS011;62813;51.424;6.762;2024-02-16T12:50:57;10.93;;;5.43;;
9007;SDS011;62813;51.424;6.762;2024-02-16T12:53:24;10.37;;;5.57;;
9007;SDS011;62813;51.424;6.762;2024-02-16T12:55:52;14.00;;;5.33;;
9007;SDS011;62813;51.424;6.762;2024-02-16T12:58:18;7.67;;;4.80;;
9007;SDS011;62813;51.424;6.762;2024-02-16T13:00:45;12.93;;;5.50;;
9007;SDS011;62813;51.424;6.762;2024-02-16T13:03:11;12.50;;;5.50;;
9007;SDS011;62813;51.424;6.762;2024-02-16T13:05:38;13.63;;;6.33;;
9007;SDS011;62813;51.424;6.762;2024-02-16T13:08:05;18.70;;;6.43;;
9007;SDS011;62813;51.424;6.762;2024-02-16T13:10:35;13.83;;;7.27;;
9007;SDS011;62813;51.424;6.762;2024-02-16T13:13:01;12.37;;;6.63;;
9007;SDS011;62813;51.424;6.762;2024-02-16T13:15:28;13.23;;;5.90;;
9007;SDS011;62813;51.424;6.762;2024-02-16T13:17:56;16.77;;;6.67;;
9007;SDS011;62813;51.424;6.762;2024-02-16T13:20:23;10.87;;;6.37;;
9007;SDS011;62813;51.424;6.762;2024-02-16T13:22:50;13.97;;;6.73;;
9007;SDS011;62813;51.424;6.762;2024-02-16T13:25:19;10.17;;;6.27;;
9007;SDS011;62813;51.424;6.762;2024-02-16T13:27:45;14.03;;;6.47;;
9007;SDS011;62813;51.424;6.762;2024-02-16T13:30:12;11.33;;;5.67;;
9007;SDS011;62813;51.424;6.762;2024-02-16T13:32:41;10.93;;;6.70;;
9007;SDS011;62813;51.424;6.762;2024-02-16T13:35:07;16.33;;;6.57;;
9007;SDS011;62813;51.424;6.762;2024-02-16T13:37:34;10.10;;;6.47;;
9007;SDS011;62813;51.424;6.762;2024-02-16T13:40:01;13.40;;;6.83;;
9007;SDS011;62813;51.424;6.762;2024-02-16T13:42:33;11.63;;;7.00;;
9007;SDS011;62813;51.424;6.762;2024-02-16T13:45:00;14.80;;;7.83;;
9007;SDS011;62813;51.424;6.762;2024-02-16T13:47:27;20.33;;;8.63;;
9007;SDS011;62813;51.424;6.762;2024-02-16T13:49:53;17.77;;;7.37;;
9007;SDS011;62813;51.424;6.762;2024-02-16T13:52:20;14.47;;;7.67;;
9007;SDS011;62813;51.424;6.762;2024-02-16T13:54:46;12.67;;;7.47;;
9007;SDS011;62813;51.424;6.762;2024-02-16T13:57:13;19.07;;;9.47;;
9007;SDS011;62813;51.424;6.762;2024-02-16T13:59:40;18.60;;;8.57;;
9007;SDS011;62813;51.424;6.762;2024-02-16T14:02:08;19.93;;;9.30;;
9007;SDS011;62813;51.424;6.762;2024-02-16T14:04:34;16.87;;;10.03;;
9007;SDS011;62813;51.424;6.762;2024-02-16T14:07:04;15.47;;;8.40;;
9007;SDS011;62813;51.424;6.762;2024-02-16T14:09:31;10.93;;;6.83;;
9007;SDS011;62813;51.424;6.762;2024-02-16T14:11:59;12.63;;;7.60;;
9007;SDS011;62813;51.424;6.762;2024-02-16T14:14:26;12.23;;;7.73;;
9007;SDS011;62813;51.424;6.762;2024-02-16T14:17:03;14.60;;;8.23;;
9007;SDS011;62813;51.424;6.762;2024-02-16T14:19:30;14.07;;;7.70;;
9007;SDS011;62813;51.424;6.762;2024-02-16T14:21:57;11.63;;;7.60;;
9007;SDS011;62813;51.424;6.762;2024-02-16T14:24:24;15.50;;;7.87;;
9007;SDS011;62813;51.424;6.762;2024-02-16T14:26:51;12.13;;;7.27;;
9007;SDS011;62813;51.424;6.762;2024-02-16T14:29:20;10.83;;;7.73;;
9007;SDS011;62813;51.424;6.762;2024-02-16T14:31:47;7.80;;;6.70;;
9007;SDS011;62813;51.424;6.762;2024-02-16T14:34:15;11.80;;;7.73;;
9007;SDS011;62813;51.424;6.762;2024-02-16T14:36:43;10.60;;;6.87;;
9007;SDS011;62813;51.424;6.762;2024-02-16T14:39:09;10.20;;;7.63;;
9007;SDS011;62813;51.424;6.762;2024-02-16T14:41:38;10.27;;;6.03;;
9007;SDS011;62813;51.424;6.762;2024-02-16T14:44:05;9.03;;;6.00;;
9007;SDS011;62813;51.424;6.762;2024-02-16T14:46:32;7.30;;;6.20;;
9007;SDS011;62813;51.424;6.762;2024-02-16T14:48:58;6.87;;;5.93;;
9007;SDS011;62813;51.424;6.762;2024-02-16T14:51:25;8.93;;;5.90;;
9007;SDS011;62813;51.424;6.762;2024-02-16T14:53:52;6.40;;;5.27;;
9007;SDS011;62813;51.424;6.762;2024-02-16T14:56:19;8.23;;;5.80;;
9007;SDS011;62813;51.424;6.762;2024-02-16T14:58:48;8.30;;;6.07;;
9007;SDS011;62813;51.424;6.762;2024-02-16T15:01:15;23.17;;;17.33;;
9007;SDS011;62813;51.424;6.762;2024-02-16T15:03:42;16.03;;;9.47;;
9007;SDS011;62813;51.424;6.762;2024-02-16T15:06:09;14.93;;;11.10;;
9007;SDS011;62813;51.424;6.762;2024-02-16T15:08:35;9.53;;;6.67;;